createdAt,value
2023-04-16T00:02:13.939Z,66.47
2023-04-16T00:04:46.965Z,66.35
2023-04-16T00:07:21.111Z,66.55
2023-04-16T00:09:53.923Z,66.45
2023-04-16T00:12:26.696Z,66.48
2023-04-16T00:14:59.536Z,66.42
2023-04-16T00:17:33.432Z,66.46
2023-04-16T00:20:08.911Z,66.58
2023-04-16T00:22:43.031Z,66.51
2023-04-16T00:25:15.974Z,66.68
2023-04-16T00:27:48.768Z,66.59
2023-04-16T00:30:21.574Z,66.68
2023-04-16T00:32:54.385Z,66.63
2023-04-16T00:35:27.262Z,66.65
2023-04-16T00:38:01.415Z,66.52
2023-04-16T00:40:34.187Z,66.50
2023-04-16T00:43:07.029Z,66.35
2023-04-16T00:45:39.873Z,66.32
2023-04-16T00:48:12.894Z,66.27
2023-04-16T00:50:45.763Z,66.19
2023-04-16T00:53:20.488Z,66.28
2023-04-16T00:55:53.588Z,66.40
2023-04-16T00:58:26.768Z,66.35
2023-04-16T01:00:59.599Z,66.30
2023-04-16T01:03:39.460Z,66.32
2023-04-16T01:06:13.306Z,66.37
2023-04-16T01:08:47.341Z,65.92
2023-04-16T01:11:20.150Z,66.01
2023-04-16T01:13:53.079Z,66.38
2023-04-16T01:16:26.801Z,66.39
2023-04-16T01:18:59.566Z,65.91
2023-04-16T01:21:33.781Z,66.19
2023-04-16T01:24:06.933Z,66.39
2023-04-16T01:26:39.750Z,66.53
2023-04-16T01:29:12.527Z,66.58
2023-04-16T01:31:46.659Z,66.80
2023-04-16T01:34:27.179Z,67.14
2023-04-16T01:37:01.448Z,66.82
2023-04-16T01:39:34.266Z,66.82
2023-04-16T01:42:07.594Z,66.81
2023-04-16T01:44:40.502Z,66.89
2023-04-16T01:47:14.018Z,67.00
2023-04-16T01:49:48.336Z,66.92
2023-04-16T01:52:22.562Z,66.98
2023-04-16T01:54:55.428Z,67.04
2023-04-16T01:57:53.384Z,66.93
2023-04-16T02:00:29.708Z,67.01
2023-04-16T02:03:02.846Z,66.98
2023-04-16T02:05:35.776Z,67.05
2023-04-16T02:08:10.029Z,67.18
2023-04-16T02:10:42.911Z,67.31
2023-04-16T02:13:16.231Z,67.24
2023-04-16T02:15:52.029Z,67.34
2023-04-16T02:18:33.157Z,67.43
2023-04-16T02:21:07.786Z,67.43
2023-04-16T02:23:41.980Z,67.28
2023-04-16T02:26:15.394Z,67.54
2023-04-16T02:28:48.997Z,66.96
2023-04-16T02:31:22.809Z,67.18
2023-04-16T02:33:55.806Z,67.23
2023-04-16T02:36:28.604Z,67.54
2023-04-16T02:39:03.871Z,67.57
2023-04-16T02:41:36.813Z,67.54
2023-04-16T02:44:09.596Z,67.77
2023-04-16T02:46:42.417Z,67.83
2023-04-16T02:49:15.438Z,67.73
2023-04-16T02:51:48.225Z,67.69
2023-04-16T02:54:22.426Z,67.74
2023-04-16T02:56:55.264Z,67.82
2023-04-16T02:59:28.499Z,67.69
2023-04-16T03:02:01.435Z,67.70
2023-04-16T03:04:34.394Z,67.75
2023-04-16T03:07:08.709Z,67.55
2023-04-16T03:09:42.836Z,67.76
2023-04-16T03:12:15.714Z,67.69
2023-04-16T03:14:48.540Z,67.71
2023-04-16T03:17:21.419Z,67.65
2023-04-16T03:19:54.273Z,67.71
2023-04-16T03:22:27.114Z,67.72
2023-04-16T03:25:01.296Z,67.84
2023-04-16T03:27:34.359Z,67.85
2023-04-16T03:30:08.874Z,67.84
2023-04-16T03:32:42.634Z,67.78
2023-04-16T03:35:16.500Z,67.86
2023-04-16T03:37:50.171Z,67.85
2023-04-16T03:40:24.632Z,67.92
2023-04-16T03:42:58.619Z,67.82
2023-04-16T03:45:31.435Z,67.75
2023-04-16T03:48:04.386Z,67.68
2023-04-16T03:50:37.325Z,67.59
2023-04-16T03:53:12.571Z,67.72
2023-04-16T03:55:50.539Z,67.58
2023-04-16T03:58:23.732Z,67.38
2023-04-16T04:00:57.584Z,67.55
2023-04-16T04:03:31.175Z,67.49
2023-04-16T04:06:08.278Z,67.62
2023-04-16T04:08:41.177Z,67.45
2023-04-16T04:11:16.575Z,67.53
2023-04-16T04:13:49.940Z,67.51
2023-04-16T04:16:22.799Z,67.19
2023-04-16T04:18:56.365Z,67.54
2023-04-16T04:21:31.741Z,67.60
2023-04-16T04:24:04.717Z,67.48
2023-04-16T04:26:40.515Z,67.49
2023-04-16T04:29:14.125Z,67.46
2023-04-16T04:31:47.044Z,67.35
2023-04-16T04:34:20.190Z,67.38
2023-04-16T04:36:53.149Z,67.33
2023-04-16T04:39:26.306Z,67.40
2023-04-16T04:42:03.162Z,67.30
2023-04-16T04:44:35.997Z,67.05
2023-04-16T04:47:08.813Z,66.78
2023-04-16T04:49:41.690Z,66.58
2023-04-16T04:52:15.162Z,66.34
2023-04-16T04:54:48.570Z,66.02
2023-04-16T04:57:22.749Z,65.71
2023-04-16T04:59:59.203Z,65.45
2023-04-16T05:02:34.003Z,65.59
2023-04-16T05:05:07.543Z,65.10
2023-04-16T05:07:40.506Z,65.20
2023-04-16T05:10:13.389Z,65.35
2023-04-16T05:12:49.259Z,65.10
2023-04-16T05:15:22.239Z,64.99
2023-04-16T05:17:56.166Z,65.07
2023-04-16T05:20:29.111Z,64.94
2023-04-16T05:23:01.953Z,64.81
2023-04-16T05:25:34.918Z,64.88
2023-04-16T05:28:09.087Z,64.67
2023-04-16T05:30:42.011Z,64.40
2023-04-16T05:33:14.940Z,64.17
2023-04-16T05:35:47.761Z,63.80
2023-04-16T05:38:20.593Z,63.52
2023-04-16T05:40:53.400Z,63.44
2023-04-16T05:43:27.597Z,63.27
2023-04-16T05:46:00.497Z,63.04
2023-04-16T05:48:33.304Z,62.73
2023-04-16T05:51:06.485Z,62.49
2023-04-16T05:53:39.309Z,62.35
2023-04-16T05:56:12.141Z,62.31
2023-04-16T05:59:11.816Z,62.33
2023-04-16T06:01:53.266Z,62.26
2023-04-16T06:04:33.376Z,62.11
2023-04-16T06:07:06.260Z,62.15
2023-04-16T06:09:39.143Z,62.16
2023-04-16T06:12:22.638Z,62.04
2023-04-16T06:14:56.916Z,61.97
2023-04-16T06:17:29.740Z,61.83
2023-04-16T06:20:02.560Z,61.76
2023-04-16T06:22:35.909Z,61.74
2023-04-16T06:25:17.668Z,61.76
2023-04-16T06:27:51.116Z,61.80
2023-04-16T06:30:25.285Z,61.83
2023-04-16T06:32:58.253Z,61.82
2023-04-16T06:35:31.111Z,61.82
2023-04-16T06:38:03.998Z,61.53
2023-04-16T06:40:37.543Z,61.38
2023-04-16T06:43:10.482Z,61.21
2023-04-16T06:45:44.708Z,61.40
2023-04-16T06:48:17.637Z,61.29
2023-04-16T06:50:50.505Z,61.29
2023-04-16T06:53:23.668Z,61.28
2023-04-16T06:55:56.549Z,61.35
2023-04-16T06:58:29.562Z,61.24
2023-04-16T07:01:04.331Z,61.29
2023-04-16T07:03:37.573Z,61.54
2023-04-16T07:06:10.776Z,61.62
2023-04-16T07:08:43.620Z,61.47
2023-04-16T07:11:16.581Z,61.25
2023-04-16T07:13:51.179Z,61.25
2023-04-16T07:16:26.845Z,61.20
2023-04-16T07:18:59.828Z,60.79
2023-04-16T07:21:32.887Z,60.75
2023-04-16T07:24:06.070Z,60.77
2023-04-16T07:26:38.962Z,60.59
2023-04-16T07:29:12.060Z,60.46
2023-04-16T07:31:46.554Z,60.34
2023-04-16T07:34:19.419Z,60.35
2023-04-16T07:36:52.251Z,60.42
2023-04-16T07:39:25.103Z,60.14
2023-04-16T07:41:57.966Z,60.07
2023-04-16T07:44:31.066Z,60.41
2023-04-16T07:47:05.876Z,60.16
2023-04-16T07:49:39.958Z,60.23
2023-04-16T07:52:13.075Z,60.19
2023-04-16T07:54:45.965Z,60.20
2023-04-16T07:57:18.782Z,60.16
2023-04-16T07:59:51.596Z,60.05
2023-04-16T08:02:36.035Z,60.26
2023-04-16T08:05:15.234Z,60.15
2023-04-16T08:07:53.656Z,60.30
2023-04-16T08:10:32.616Z,60.48
2023-04-16T08:13:05.716Z,60.36
2023-04-16T08:15:38.642Z,60.48
2023-04-16T08:18:19.818Z,60.57
2023-04-16T08:20:55.395Z,60.56
2023-04-16T08:23:30.765Z,60.87
2023-04-16T08:26:12.096Z,61.07
2023-04-16T08:28:55.476Z,60.92
2023-04-16T08:31:33.423Z,60.71
2023-04-16T08:34:11.484Z,60.69
2023-04-16T08:36:46.126Z,60.94
2023-04-16T08:39:19.275Z,60.95
2023-04-16T08:41:55.544Z,60.77
2023-04-16T08:44:35.677Z,60.62
2023-04-16T08:47:12.849Z,60.62
2023-04-16T08:49:58.371Z,60.70
2023-04-16T08:52:51.792Z,60.31
2023-04-16T08:55:33.611Z,60.45
2023-04-16T08:58:11.073Z,60.25
2023-04-16T09:00:46.160Z,60.01
2023-04-16T09:03:21.559Z,60.03
2023-04-16T09:05:59.320Z,60.11
2023-04-16T09:08:33.384Z,59.68
2023-04-16T09:11:20.209Z,59.48
2023-04-16T09:13:54.321Z,59.29
2023-04-16T09:16:34.639Z,59.02
2023-04-16T09:19:07.782Z,58.99
2023-04-16T09:21:43.242Z,58.71
2023-04-16T09:24:19.775Z,58.56
2023-04-16T09:26:55.451Z,58.28
2023-04-16T09:29:36.246Z,58.39
2023-04-16T09:32:10.819Z,57.87
2023-04-16T09:35:07.831Z,57.62
2023-04-16T09:37:42.581Z,57.47
2023-04-16T09:40:30.643Z,57.42
2023-04-16T09:43:16.413Z,56.99
2023-04-16T09:45:53.994Z,56.92
2023-04-16T09:48:32.746Z,56.78
2023-04-16T09:51:09.870Z,56.80
2023-04-16T09:53:51.863Z,56.61
2023-04-16T09:56:30.846Z,56.74
2023-04-16T09:59:06.761Z,56.38
2023-04-16T10:01:46.969Z,56.14
2023-04-16T10:04:20.194Z,56.24
2023-04-16T10:07:08.681Z,55.98
2023-04-16T10:09:46.667Z,55.63
2023-04-16T10:12:23.143Z,55.50
2023-04-16T10:14:57.474Z,55.21
2023-04-16T10:17:31.350Z,55.31
2023-04-16T10:20:04.720Z,55.06
2023-04-16T10:22:46.169Z,55.22
2023-04-16T10:25:21.634Z,55.13
2023-04-16T10:27:54.880Z,55.09
2023-04-16T10:30:31.624Z,55.26
2023-04-16T10:33:06.218Z,54.81
2023-04-16T10:35:41.436Z,54.55
2023-04-16T10:38:24.457Z,54.31
2023-04-16T10:41:03.861Z,54.14
2023-04-16T10:43:41.125Z,53.86
2023-04-16T10:46:32.485Z,53.33
2023-04-16T10:49:14.993Z,53.39
2023-04-16T10:51:55.702Z,53.30
2023-04-16T10:54:30.486Z,53.02
2023-04-16T10:57:08.174Z,53.04
2023-04-16T10:59:43.828Z,52.87
2023-04-16T11:02:19.220Z,52.90
2023-04-16T11:04:53.589Z,53.07
2023-04-16T11:07:34.821Z,53.21
2023-04-16T11:10:08.650Z,53.02
2023-04-16T11:12:44.864Z,53.22
2023-04-16T11:15:19.310Z,53.09
2023-04-16T11:17:53.443Z,52.84
2023-04-16T11:20:27.842Z,52.52
2023-04-16T11:23:00.829Z,52.22
2023-04-16T11:25:34.265Z,51.88
2023-04-16T11:28:08.585Z,51.39
2023-04-16T11:30:41.843Z,50.94
2023-04-16T11:33:14.811Z,50.79
2023-04-16T11:35:58.141Z,50.37
2023-04-16T11:38:36.167Z,50.26
2023-04-16T11:41:09.670Z,50.08
2023-04-16T11:43:44.142Z,49.84
2023-04-16T11:46:27.282Z,50.10
2023-04-16T11:49:00.783Z,50.60
2023-04-16T11:51:38.101Z,50.72
2023-04-16T11:54:20.661Z,50.58
2023-04-16T11:56:54.346Z,50.75
2023-04-16T11:59:28.414Z,50.91
2023-04-16T12:02:01.248Z,50.72
2023-04-16T12:04:34.850Z,50.47
2023-04-16T12:07:08.638Z,50.68
2023-04-16T12:09:43.468Z,50.30
2023-04-16T12:12:31.412Z,50.42
2023-04-16T12:15:08.132Z,50.21
2023-04-16T12:17:40.985Z,50.10
2023-04-16T12:20:15.335Z,50.05
2023-04-16T12:22:49.739Z,49.84
2023-04-16T12:25:26.056Z,49.75
2023-04-16T12:27:59.418Z,49.99
2023-04-16T12:30:33.708Z,49.85
2023-04-16T12:33:17.484Z,49.68
2023-04-16T12:35:50.991Z,49.60
2023-04-16T12:38:25.466Z,49.42
2023-04-16T12:40:58.497Z,49.11
2023-04-16T12:43:31.342Z,49.08
2023-04-16T12:46:05.513Z,49.32
2023-04-16T12:48:38.359Z,49.04
2023-04-16T12:51:11.435Z,48.85
2023-04-16T12:53:44.337Z,48.64
2023-04-16T12:56:17.774Z,48.37
2023-04-16T12:58:51.986Z,48.82
2023-04-16T13:01:26.414Z,48.02
2023-04-16T13:03:59.493Z,47.93
2023-04-16T13:06:33.759Z,47.87
2023-04-16T13:09:06.749Z,47.47
2023-04-16T13:11:39.595Z,47.09
2023-04-16T13:14:12.509Z,46.79
2023-04-16T13:16:46.773Z,46.42
2023-04-16T13:19:19.916Z,46.18
2023-04-16T13:21:52.826Z,45.91
2023-04-16T13:24:25.983Z,45.45
2023-04-16T13:26:59.355Z,45.41
2023-04-16T13:29:32.236Z,45.46
2023-04-16T13:32:07.218Z,45.63
2023-04-16T13:34:40.213Z,45.18
2023-04-16T13:37:13.086Z,45.43
2023-04-16T13:39:46.472Z,45.12
2023-04-16T13:42:19.315Z,45.49
2023-04-16T13:44:54.269Z,45.21
2023-04-16T13:47:28.537Z,45.14
2023-04-16T13:50:01.895Z,45.32
2023-04-16T13:52:34.768Z,45.07
2023-04-16T13:55:09.547Z,45.29
2023-04-16T13:57:42.506Z,45.55
2023-04-16T14:00:16.758Z,44.88
2023-04-16T14:02:51.527Z,44.90
2023-04-16T14:05:26.978Z,44.65
2023-04-16T14:08:00.167Z,44.82
2023-04-16T14:10:33.247Z,44.44
2023-04-16T14:13:06.295Z,44.61
2023-04-16T14:15:39.180Z,44.41
2023-04-16T14:18:13.471Z,44.29
2023-04-16T14:20:46.407Z,44.05
2023-04-16T14:23:19.269Z,44.34
2023-04-16T14:25:52.203Z,44.48
2023-04-16T14:28:25.192Z,44.86
2023-04-16T14:30:57.995Z,45.58
2023-04-16T14:33:32.343Z,46.53
2023-04-16T14:36:05.934Z,46.94
2023-04-16T14:38:39.037Z,47.25
2023-04-16T14:41:12.469Z,47.73
2023-04-16T14:43:48.116Z,48.49
2023-04-16T14:46:20.976Z,48.86
2023-04-16T14:48:55.505Z,49.05
2023-04-16T14:51:28.511Z,49.72
2023-04-16T14:54:02.024Z,50.03
2023-04-16T14:56:34.828Z,50.07
2023-04-16T14:59:07.929Z,50.13
2023-04-16T15:01:43.916Z,50.31
2023-04-16T15:04:18.523Z,50.77
2023-04-16T15:06:51.591Z,51.31
2023-04-16T15:09:24.608Z,51.12
2023-04-16T15:11:58.141Z,51.13
2023-04-16T15:14:33.008Z,51.25
2023-04-16T15:17:10.332Z,51.39
2023-04-16T15:19:44.674Z,51.35
2023-04-16T15:22:20.402Z,51.67
2023-04-16T15:24:54.121Z,51.76
2023-04-16T15:27:30.598Z,51.89
2023-04-16T15:30:03.796Z,51.75
2023-04-16T15:32:36.886Z,51.37
2023-04-16T15:35:11.581Z,51.32
2023-04-16T15:37:44.683Z,51.18
2023-04-16T15:40:19.021Z,51.28
2023-04-16T15:42:52.151Z,51.43
2023-04-16T15:45:25.117Z,51.06
2023-04-16T15:47:58.050Z,50.97
2023-04-16T15:50:32.694Z,51.10
2023-04-16T15:53:05.697Z,51.23
2023-04-16T15:55:38.641Z,51.29
2023-04-16T15:58:11.550Z,51.02
2023-04-16T16:00:46.523Z,51.23
2023-04-16T16:03:20.274Z,51.16
2023-04-16T16:05:58.194Z,51.33
2023-04-16T16:08:35.327Z,51.13
2023-04-16T16:11:08.260Z,51.36
2023-04-16T16:13:41.707Z,51.43
2023-04-16T16:16:17.253Z,51.55
2023-04-16T16:18:52.362Z,51.54
2023-04-16T16:21:28.630Z,52.00
2023-04-16T16:24:01.773Z,51.98
2023-04-16T16:26:34.736Z,52.03
2023-04-16T16:29:07.782Z,52.13
2023-04-16T16:31:43.508Z,52.18
2023-04-16T16:34:21.669Z,52.27
2023-04-16T16:37:00.883Z,52.56
2023-04-16T16:39:35.591Z,52.33
2023-04-16T16:42:10.226Z,52.23
2023-04-16T16:44:46.872Z,52.41
2023-04-16T16:47:19.841Z,52.42
2023-04-16T16:49:54.658Z,52.57
2023-04-16T16:52:28.915Z,52.57
2023-04-16T16:55:01.723Z,52.61
2023-04-16T16:57:34.550Z,52.51
2023-04-16T17:00:14.247Z,52.68
2023-04-16T17:02:48.320Z,52.59
2023-04-16T17:05:21.401Z,52.99
2023-04-16T17:07:55.678Z,53.21
2023-04-16T17:10:28.778Z,53.37
2023-04-16T17:13:02.356Z,53.61
2023-04-16T17:15:37.026Z,53.75
2023-04-16T17:18:10.010Z,53.92
2023-04-16T17:20:42.815Z,53.91
2023-04-16T17:23:17.254Z,54.29
2023-04-16T17:25:50.541Z,54.22
2023-04-16T17:28:25.380Z,54.32
2023-04-16T17:30:58.340Z,54.50
2023-04-16T17:33:35.610Z,54.56
2023-04-16T17:36:08.992Z,54.86
2023-04-16T17:38:44.872Z,55.02
2023-04-16T17:41:17.806Z,55.17
2023-04-16T17:43:54.299Z,55.24
2023-04-16T17:46:30.501Z,55.65
2023-04-16T17:49:03.774Z,55.75
2023-04-16T17:51:36.630Z,55.91
2023-04-16T17:54:11.486Z,56.26
2023-04-16T17:56:45.500Z,56.46
2023-04-16T17:59:19.411Z,55.92
2023-04-16T18:01:52.374Z,56.50
2023-04-16T18:04:25.519Z,56.87
2023-04-16T18:07:02.039Z,57.17
2023-04-16T18:09:57.392Z,57.51
2023-04-16T18:12:32.778Z,57.80
2023-04-16T18:15:07.105Z,57.94
2023-04-16T18:17:40.295Z,58.16
2023-04-16T18:20:16.838Z,58.33
2023-04-16T18:25:56.415Z,59.03
2023-04-16T18:28:29.404Z,59.12
2023-04-16T18:31:06.777Z,59.30
2023-04-16T18:33:55.768Z,59.44
2023-04-16T18:36:31.246Z,59.47
2023-04-16T18:39:04.328Z,59.66
2023-04-16T18:41:40.199Z,59.93
2023-04-16T18:44:15.759Z,60.20
2023-04-16T18:46:51.061Z,60.23
2023-04-16T18:49:29.688Z,60.38
2023-04-16T18:52:05.944Z,60.57
2023-04-16T18:54:39.062Z,60.81
2023-04-16T18:57:37.758Z,60.77
2023-04-16T19:00:15.529Z,60.77
2023-04-16T19:03:09.625Z,60.90
2023-04-16T19:05:56.934Z,61.04
2023-04-16T19:08:30.442Z,61.12
2023-04-16T19:11:06.464Z,61.45
2023-04-16T19:13:44.114Z,61.53
2023-04-16T19:16:17.623Z,61.52
2023-04-16T19:18:53.303Z,61.56
2023-04-16T19:21:26.199Z,61.73
2023-04-16T19:23:59.634Z,61.79
2023-04-16T19:26:32.501Z,61.82
2023-04-16T19:29:06.649Z,61.89
2023-04-16T19:31:41.952Z,62.07
2023-04-16T19:34:15.820Z,62.04
2023-04-16T19:37:01.354Z,62.28
2023-04-16T19:39:41.889Z,62.17
2023-04-16T19:42:27.928Z,62.17
2023-04-16T19:45:11.317Z,62.25
2023-04-16T19:47:48.868Z,62.35
2023-04-16T19:50:46.860Z,62.32
2023-04-16T19:53:26.495Z,62.36
2023-04-16T19:56:34.603Z,62.51
2023-04-16T19:59:15.671Z,62.55
2023-04-16T20:01:51.402Z,62.60
2023-04-16T20:04:25.263Z,62.64
2023-04-16T20:07:06.050Z,62.78
2023-04-16T20:09:39.184Z,62.91
2023-04-16T20:12:13.728Z,62.94
2023-04-16T20:14:48.843Z,63.07
2023-04-16T20:17:37.400Z,63.13
2023-04-16T20:20:15.833Z,63.31
2023-04-16T20:22:50.233Z,63.33
2023-04-16T20:25:30.156Z,63.29
2023-04-16T20:28:08.511Z,63.54
2023-04-16T20:30:51.865Z,63.61
2023-04-16T20:33:26.398Z,63.62
2023-04-16T20:36:01.267Z,63.84
2023-04-16T20:38:35.606Z,63.72
2023-04-16T20:41:20.344Z,63.79
2023-04-16T20:44:09.404Z,64.02
2023-04-16T20:46:49.520Z,63.96
2023-04-16T20:49:24.997Z,64.11
2023-04-16T20:51:57.986Z,64.18
2023-04-16T20:54:31.318Z,64.05
2023-04-16T20:57:05.090Z,64.12
2023-04-16T20:59:38.268Z,64.28
2023-04-16T21:02:11.242Z,64.36
2023-04-16T21:04:45.765Z,64.44
2023-04-16T21:07:18.812Z,64.59
2023-04-16T21:09:53.769Z,64.63
2023-04-16T21:12:30.625Z,64.76
2023-04-16T21:15:03.933Z,64.73
2023-04-16T21:17:36.758Z,64.95
2023-04-16T21:20:13.521Z,65.12
2023-04-16T21:22:46.449Z,65.22
2023-04-16T21:25:19.329Z,65.29
2023-04-16T21:27:52.483Z,65.25
2023-04-16T21:30:25.565Z,65.46
2023-04-16T21:32:58.564Z,65.44
2023-04-16T21:35:33.922Z,65.48
2023-04-16T21:38:06.732Z,65.53
2023-04-16T21:40:39.776Z,65.64
2023-04-16T21:43:12.556Z,65.48
2023-04-16T21:45:45.392Z,65.73
2023-04-16T21:48:18.324Z,65.78
2023-04-16T21:50:58.312Z,66.02
2023-04-16T21:53:32.052Z,65.95
2023-04-16T21:56:04.800Z,65.32
2023-04-16T21:58:37.654Z,65.73
2023-04-16T22:01:11.053Z,65.98
2023-04-16T22:03:44.320Z,66.08
2023-04-16T22:06:18.773Z,66.46
2023-04-16T22:08:51.646Z,66.44
2023-04-16T22:11:24.517Z,66.73
2023-04-16T22:13:57.925Z,66.74
2023-04-16T22:16:31.102Z,66.62
2023-04-16T22:19:04.025Z,66.94
2023-04-16T22:21:38.434Z,67.02
2023-04-16T22:24:11.222Z,67.05
2023-04-16T22:26:44.010Z,67.32
2023-04-16T22:29:16.794Z,67.41
2023-04-16T22:31:49.631Z,67.46
2023-04-16T22:34:22.450Z,67.42
2023-04-16T22:36:56.980Z,67.54
2023-04-16T22:39:29.977Z,67.60
2023-04-16T22:42:02.951Z,67.58
2023-04-16T22:44:37.174Z,67.45
2023-04-16T22:47:09.980Z,67.62
2023-04-16T22:49:42.797Z,67.64
2023-04-16T22:52:17.055Z,67.74
2023-04-16T22:54:49.890Z,67.86
2023-04-16T22:57:24.898Z,67.74
2023-04-16T22:59:57.748Z,67.91
2023-04-16T23:02:30.672Z,68.06
2023-04-16T23:05:04.903Z,67.99
2023-04-16T23:07:39.109Z,68.18
2023-04-16T23:10:12.353Z,68.08
2023-04-16T23:12:45.171Z,68.24
2023-04-16T23:15:18.223Z,68.29
2023-04-16T23:17:51.155Z,68.39
2023-04-16T23:20:24.103Z,68.33
2023-04-16T23:22:58.300Z,68.26
2023-04-16T23:25:31.614Z,68.45
2023-04-16T23:28:04.441Z,68.36
2023-04-16T23:30:37.426Z,68.50
2023-04-16T23:33:10.306Z,68.50
2023-04-16T23:35:43.163Z,68.57
2023-04-16T23:38:17.349Z,68.70
2023-04-16T23:40:50.185Z,68.67
2023-04-16T23:43:23.012Z,68.73
2023-04-16T23:45:55.970Z,69.00
2023-04-16T23:48:28.982Z,68.99
2023-04-16T23:51:01.968Z,68.94
2023-04-16T23:53:36.431Z,68.97
2023-04-16T23:56:11.070Z,69.19
2023-04-16T23:58:44.035Z,69.32
